createdAt,value
2022-12-29T00:01:50.754Z,0.42
2022-12-29T00:05:07.122Z,0.40
2022-12-29T00:08:24.978Z,0.29
2022-12-29T00:11:40.969Z,0.25
2022-12-29T00:15:10.822Z,0.25
2022-12-29T00:18:26.926Z,0.35
2022-12-29T00:21:57.092Z,0.38
2022-12-29T00:25:29.726Z,0.26
2022-12-29T00:29:01.804Z,0.40
2022-12-29T00:32:34.477Z,0.58
2022-12-29T00:35:56.367Z,0.64
2022-12-29T00:39:30.943Z,0.64
2022-12-29T00:43:01.187Z,0.51
2022-12-29T00:46:20.042Z,0.48
2022-12-29T00:49:38.449Z,0.61
2022-12-29T00:52:54.365Z,0.64
2022-12-29T00:56:13.073Z,0.65
2022-12-29T00:59:30.464Z,0.69
2022-12-29T01:02:46.802Z,0.72
2022-12-29T01:06:03.392Z,0.68
2022-12-29T01:09:34.546Z,0.77
2022-12-29T01:13:44.243Z,0.71
2022-12-29T01:17:01.978Z,0.72
2022-12-29T01:20:20.642Z,0.72
2022-12-29T01:23:37.912Z,0.83
2022-12-29T01:26:56.068Z,0.99
2022-12-29T01:30:14.485Z,1.34
2022-12-29T01:33:32.451Z,1.88
2022-12-29T01:36:50.550Z,2.52
2022-12-29T01:40:07.233Z,2.83
2022-12-29T01:43:25.350Z,3.05
2022-12-29T01:46:46.030Z,3.24
2022-12-29T01:50:07.403Z,3.38
2022-12-29T01:53:29.229Z,3.51
2022-12-29T01:56:46.092Z,3.61
2022-12-29T02:00:07.450Z,3.67
2022-12-29T02:03:28.158Z,3.70
2022-12-29T02:06:54.723Z,3.77
2022-12-29T02:10:13.871Z,3.84
2022-12-29T02:13:29.784Z,3.88
2022-12-29T02:16:58.840Z,3.93
2022-12-29T02:20:52.852Z,4.00
2022-12-29T02:24:56.292Z,4.01
2022-12-29T02:28:59.229Z,4.00
2022-12-29T02:32:21.603Z,4.02
2022-12-29T02:35:42.627Z,4.05
2022-12-29T02:39:11.527Z,4.10
2022-12-29T02:42:34.496Z,4.01
2022-12-29T02:45:57.812Z,3.89
2022-12-29T02:49:19.755Z,3.83
2022-12-29T02:52:42.416Z,3.63
2022-12-29T02:56:00.781Z,3.55
2022-12-29T02:59:18.949Z,3.52
2022-12-29T03:02:55.865Z,3.47
2022-12-29T03:06:31.945Z,3.34
2022-12-29T03:09:54.971Z,3.16
2022-12-29T03:13:32.365Z,3.11
2022-12-29T03:16:54.497Z,3.11
2022-12-29T03:20:15.719Z,3.12
2022-12-29T03:23:36.826Z,3.22
2022-12-29T03:26:56.152Z,3.26
2022-12-29T03:30:16.617Z,3.24
2022-12-29T03:33:36.648Z,3.17
2022-12-29T03:36:57.679Z,3.16
2022-12-29T03:40:16.294Z,3.23
2022-12-29T03:43:36.192Z,3.23
2022-12-29T03:46:52.576Z,3.03
2022-12-29T03:50:13.927Z,2.69
2022-12-29T03:53:31.052Z,2.58
2022-12-29T03:56:46.983Z,2.62
2022-12-29T04:00:05.261Z,2.70
2022-12-29T04:03:25.444Z,2.80
2022-12-29T04:06:41.651Z,2.84
2022-12-29T04:09:59.255Z,2.85
2022-12-29T04:13:16.863Z,2.82
2022-12-29T04:16:36.289Z,2.84
2022-12-29T04:19:55.741Z,2.69
2022-12-29T04:23:13.306Z,2.48
2022-12-29T04:26:29.725Z,2.41
2022-12-29T04:29:53.904Z,2.41
2022-12-29T04:33:19.097Z,2.42
2022-12-29T04:36:35.573Z,2.40
2022-12-29T04:39:51.742Z,2.35
2022-12-29T04:43:07.917Z,2.36
2022-12-29T04:46:25.828Z,2.50
2022-12-29T04:49:55.601Z,2.39
2022-12-29T04:53:13.749Z,2.29
2022-12-29T04:56:31.750Z,2.47
2022-12-29T04:59:47.780Z,2.72
2022-12-29T05:03:04.345Z,2.82
2022-12-29T05:06:21.289Z,2.78
2022-12-29T05:09:38.127Z,2.75
2022-12-29T05:12:54.903Z,2.71
2022-12-29T05:16:13.625Z,2.56
2022-12-29T05:19:31.158Z,2.49
2022-12-29T05:22:49.163Z,2.42
2022-12-29T05:26:05.547Z,2.69
2022-12-29T05:29:39.002Z,2.93
2022-12-29T05:32:55.782Z,2.80
2022-12-29T05:36:18.706Z,2.72
2022-12-29T05:39:36.808Z,2.74
2022-12-29T05:42:53.827Z,2.79
2022-12-29T05:46:20.741Z,3.23
2022-12-29T05:49:41.256Z,3.53
2022-12-29T05:53:39.417Z,3.60
2022-12-29T05:56:58.289Z,3.86
2022-12-29T06:00:17.655Z,3.89
2022-12-29T06:03:35.462Z,3.98
2022-12-29T06:06:52.466Z,3.98
2022-12-29T06:10:11.753Z,3.94
2022-12-29T06:13:31.599Z,3.84
2022-12-29T06:16:48.178Z,3.81
2022-12-29T06:20:23.041Z,3.82
2022-12-29T06:23:38.038Z,3.86
2022-12-29T06:26:56.258Z,4.05
2022-12-29T06:30:16.603Z,4.29
2022-12-29T06:33:34.055Z,4.38
2022-12-29T06:36:55.746Z,4.46
2022-12-29T06:40:14.920Z,4.60
2022-12-29T06:43:47.986Z,4.70
2022-12-29T06:47:06.631Z,4.59
2022-12-29T06:50:23.271Z,4.35
2022-12-29T06:53:44.344Z,4.05
2022-12-29T06:57:02.627Z,3.71
2022-12-29T07:00:23.188Z,3.87
2022-12-29T07:03:40.685Z,4.03
2022-12-29T07:06:59.052Z,4.27
2022-12-29T07:10:16.658Z,4.51
2022-12-29T07:13:37.383Z,4.67
2022-12-29T07:16:54.149Z,4.77
2022-12-29T07:20:13.267Z,4.91
2022-12-29T07:23:29.604Z,4.97
2022-12-29T07:26:46.898Z,5.01
2022-12-29T07:30:04.011Z,5.02
2022-12-29T07:33:20.970Z,4.77
2022-12-29T07:36:38.522Z,4.42
2022-12-29T07:39:55.046Z,3.74
2022-12-29T07:43:11.710Z,3.77
2022-12-29T07:46:55.193Z,3.53
2022-12-29T07:50:04.339Z,3.39
2022-12-29T07:53:24.664Z,3.52
2022-12-29T07:56:41.533Z,3.64
2022-12-29T07:59:57.989Z,3.39
2022-12-29T08:03:14.384Z,3.19
2022-12-29T08:06:32.669Z,3.30
2022-12-29T08:09:48.985Z,3.45
2022-12-29T08:13:06.475Z,3.69
2022-12-29T08:16:24.787Z,3.88
2022-12-29T08:19:41.086Z,3.94
2022-12-29T08:22:59.540Z,3.87
2022-12-29T08:26:16.562Z,3.74
2022-12-29T08:29:33.085Z,3.75
2022-12-29T08:32:50.523Z,3.47
2022-12-29T08:36:13.203Z,3.46
2022-12-29T08:39:33.436Z,3.35
2022-12-29T08:42:50.918Z,3.38
2022-12-29T08:46:08.618Z,3.50
2022-12-29T08:49:25.803Z,3.58
2022-12-29T08:52:42.688Z,3.89
2022-12-29T08:56:06.420Z,4.21
2022-12-29T08:59:24.306Z,4.50
2022-12-29T09:02:41.723Z,4.84
2022-12-29T09:06:03.474Z,5.00
2022-12-29T09:09:20.051Z,5.09
2022-12-29T09:12:36.964Z,5.16
2022-12-29T09:15:53.764Z,5.35
2022-12-29T09:19:10.885Z,5.67
2022-12-29T09:22:26.956Z,5.98
2022-12-29T09:25:45.262Z,6.38
2022-12-29T09:29:01.308Z,6.73
2022-12-29T09:32:18.710Z,7.01
2022-12-29T09:35:36.126Z,7.20
2022-12-29T09:38:53.558Z,7.43
2022-12-29T09:42:15.205Z,7.73
2022-12-29T09:45:36.020Z,7.88
2022-12-29T09:48:59.861Z,8.06
2022-12-29T09:52:22.703Z,8.32
2022-12-29T09:55:49.155Z,8.48
2022-12-29T09:59:11.705Z,8.64
2022-12-29T10:02:46.641Z,8.67
2022-12-29T10:06:09.710Z,8.63
2022-12-29T10:09:31.975Z,8.70
2022-12-29T10:13:01.891Z,8.80
2022-12-29T10:16:23.552Z,8.95
2022-12-29T10:19:58.931Z,9.09
2022-12-29T10:23:35.582Z,9.23
2022-12-29T10:26:54.603Z,9.37
2022-12-29T10:30:16.891Z,9.47
2022-12-29T10:33:41.172Z,9.51
2022-12-29T10:37:02.771Z,9.57
2022-12-29T10:40:31.644Z,9.63
2022-12-29T10:43:55.735Z,9.69
2022-12-29T10:47:18.914Z,9.82
2022-12-29T10:50:41.361Z,9.88
2022-12-29T10:54:04.553Z,9.96
2022-12-29T10:57:29.864Z,10.02
2022-12-29T11:00:46.794Z,10.10
2022-12-29T11:04:12.159Z,10.18
2022-12-29T11:07:47.053Z,10.25
2022-12-29T11:11:12.159Z,10.31
2022-12-29T11:14:37.195Z,10.39
2022-12-29T11:18:01.249Z,10.49
2022-12-29T11:21:32.299Z,10.51
2022-12-29T11:24:55.978Z,10.56
2022-12-29T11:28:21.702Z,10.65
2022-12-29T11:31:38.992Z,10.77
2022-12-29T11:35:04.351Z,10.87
2022-12-29T11:38:32.531Z,10.96
2022-12-29T11:41:49.564Z,10.94
2022-12-29T11:45:11.305Z,10.95
2022-12-29T11:48:29.819Z,11.01
2022-12-29T11:51:50.700Z,11.09
2022-12-29T11:55:18.063Z,11.23
2022-12-29T11:58:45.783Z,11.38
2022-12-29T12:02:04.696Z,11.50
2022-12-29T12:05:46.432Z,11.57
2022-12-29T12:09:08.124Z,11.63
2022-12-29T12:12:28.531Z,11.63
2022-12-29T12:15:56.288Z,11.61
2022-12-29T12:19:18.619Z,11.58
2022-12-29T12:22:41.263Z,11.55
2022-12-29T12:26:06.446Z,11.52
2022-12-29T12:29:28.207Z,11.48
2022-12-29T12:32:51.691Z,11.45
2022-12-29T12:36:31.590Z,11.45
2022-12-29T12:40:05.667Z,11.40
2022-12-29T12:43:43.199Z,11.35
2022-12-29T12:47:42.213Z,11.31
2022-12-29T12:51:05.115Z,11.27
2022-12-29T12:54:37.116Z,11.25
2022-12-29T12:58:02.110Z,11.19
2022-12-29T13:01:35.000Z,11.17
2022-12-29T13:05:26.244Z,11.14
2022-12-29T13:09:05.605Z,11.13
2022-12-29T13:12:32.366Z,11.13
2022-12-29T13:15:57.417Z,11.12
2022-12-29T13:19:20.904Z,11.10
2022-12-29T13:22:45.822Z,11.08
2022-12-29T13:26:08.986Z,11.07
2022-12-29T13:29:32.911Z,11.06
2022-12-29T13:33:01.640Z,11.04
2022-12-29T13:36:25.299Z,11.03
2022-12-29T13:39:46.625Z,11.03
2022-12-29T13:43:05.775Z,11.05
2022-12-29T13:46:22.444Z,11.01
2022-12-29T13:49:41.608Z,11.00
2022-12-29T13:53:04.520Z,10.98
2022-12-29T13:56:26.704Z,10.94
2022-12-29T13:59:51.122Z,10.91
2022-12-29T14:03:30.311Z,10.89
2022-12-29T14:06:46.825Z,10.83
2022-12-29T14:10:04.970Z,10.81
2022-12-29T14:13:25.822Z,10.77
2022-12-29T14:16:44.811Z,10.73
2022-12-29T14:20:05.859Z,10.65
2022-12-29T14:23:44.680Z,10.61
2022-12-29T14:27:05.008Z,10.57
2022-12-29T14:31:00.071Z,10.51
2022-12-29T14:34:51.889Z,10.41
2022-12-29T14:38:24.967Z,10.31
2022-12-29T14:41:45.199Z,10.23
2022-12-29T14:45:05.915Z,10.20
2022-12-29T14:48:51.616Z,10.13
2022-12-29T14:52:22.853Z,9.97
2022-12-29T14:55:51.539Z,9.93
2022-12-29T14:59:10.361Z,9.91
2022-12-29T15:02:31.953Z,9.80
2022-12-29T15:05:53.745Z,9.74
2022-12-29T15:09:21.293Z,9.72
2022-12-29T15:12:45.047Z,9.64
2022-12-29T15:16:01.858Z,9.59
2022-12-29T15:19:32.658Z,9.53
2022-12-29T15:22:52.929Z,9.46
2022-12-29T15:26:11.985Z,9.36
2022-12-29T15:29:50.968Z,9.34
2022-12-29T15:33:09.671Z,9.29
2022-12-29T15:36:29.954Z,9.24
2022-12-29T15:39:47.107Z,9.19
2022-12-29T15:43:47.444Z,9.17
2022-12-29T15:47:04.659Z,9.03
2022-12-29T15:50:32.459Z,8.99
2022-12-29T15:53:49.516Z,8.91
2022-12-29T15:57:07.799Z,8.86
2022-12-29T16:00:37.313Z,8.81
2022-12-29T16:03:56.272Z,8.76
2022-12-29T16:07:30.738Z,8.69
2022-12-29T16:10:52.152Z,8.67
2022-12-29T16:14:11.576Z,8.63
2022-12-29T16:17:33.071Z,8.60
2022-12-29T16:20:53.455Z,8.62
2022-12-29T16:24:15.561Z,8.56
2022-12-29T16:27:38.468Z,8.50
2022-12-29T16:30:55.434Z,8.46
2022-12-29T16:34:29.919Z,8.44
2022-12-29T16:37:46.704Z,8.38
2022-12-29T16:41:05.540Z,8.36
2022-12-29T16:44:29.169Z,8.40
2022-12-29T16:47:45.809Z,8.28
2022-12-29T16:51:08.422Z,8.16
2022-12-29T16:54:33.515Z,8.02
2022-12-29T16:57:51.589Z,7.95
2022-12-29T17:01:11.417Z,7.83
2022-12-29T17:04:27.978Z,7.81
2022-12-29T17:07:44.183Z,7.72
2022-12-29T17:11:15.891Z,7.76
2022-12-29T17:14:51.296Z,7.72
2022-12-29T17:18:13.479Z,7.32
2022-12-29T17:21:26.737Z,7.16
2022-12-29T17:24:43.176Z,7.12
2022-12-29T17:28:04.130Z,7.13
2022-12-29T17:31:21.887Z,7.01
2022-12-29T17:34:38.532Z,6.87
2022-12-29T17:37:55.475Z,6.91
2022-12-29T17:41:11.967Z,6.66
2022-12-29T17:44:31.117Z,6.47
2022-12-29T17:47:47.273Z,6.41
2022-12-29T17:51:05.317Z,6.21
2022-12-29T17:54:31.853Z,6.27
2022-12-29T17:57:49.599Z,6.17
2022-12-29T18:01:08.548Z,6.00
2022-12-29T18:04:26.811Z,5.92
2022-12-29T18:07:43.172Z,5.75
2022-12-29T18:11:04.913Z,5.64
2022-12-29T18:14:25.694Z,5.91
2022-12-29T18:17:42.328Z,6.18
2022-12-29T18:21:02.142Z,6.22
2022-12-29T18:24:25.191Z,5.99
2022-12-29T18:27:41.398Z,6.10
2022-12-29T18:30:58.094Z,6.34
2022-12-29T18:34:34.046Z,6.49
2022-12-29T18:37:56.242Z,6.44
2022-12-29T18:41:21.120Z,6.57
2022-12-29T18:44:38.065Z,6.47
2022-12-29T18:47:58.323Z,6.19
2022-12-29T18:51:23.241Z,6.09
2022-12-29T18:54:41.434Z,6.09
2022-12-29T18:57:59.679Z,6.16
2022-12-29T19:01:26.524Z,6.17
2022-12-29T19:04:43.286Z,6.14
2022-12-29T19:07:59.950Z,5.91
2022-12-29T19:11:16.304Z,5.86
2022-12-29T19:14:32.495Z,5.70
2022-12-29T19:18:08.310Z,5.48
2022-12-29T19:21:06.903Z,5.38
2022-12-29T19:24:23.179Z,5.22
2022-12-29T19:27:39.354Z,5.23
2022-12-29T19:30:59.043Z,5.26
2022-12-29T19:34:20.625Z,5.21
2022-12-29T19:37:38.452Z,5.07
2022-12-29T19:41:01.731Z,4.84
2022-12-29T19:44:27.340Z,4.82
2022-12-29T19:47:44.174Z,5.01
2022-12-29T19:51:00.341Z,5.09
2022-12-29T19:54:23.241Z,4.79
2022-12-29T19:57:49.287Z,4.74
2022-12-29T20:01:21.091Z,4.69
2022-12-29T20:04:47.208Z,4.47
2022-12-29T20:08:03.327Z,4.14
2022-12-29T20:11:23.080Z,4.34
2022-12-29T20:14:39.340Z,4.33
2022-12-29T20:18:13.865Z,4.52
2022-12-29T20:21:21.086Z,5.16
2022-12-29T20:24:48.282Z,6.03
2022-12-29T20:28:01.243Z,6.45
2022-12-29T20:31:24.838Z,6.76
2022-12-29T20:34:42.460Z,6.98
2022-12-29T20:37:58.672Z,7.20
2022-12-29T20:41:22.055Z,7.31
2022-12-29T20:44:39.923Z,7.48
2022-12-29T20:48:09.526Z,7.63
2022-12-29T20:52:05.546Z,7.80
2022-12-29T20:55:31.062Z,7.98
2022-12-29T20:59:55.514Z,8.01
2022-12-29T21:05:13.441Z,8.12
2022-12-29T21:07:55.576Z,8.13
2022-12-29T21:11:53.806Z,8.12
2022-12-29T21:15:51.271Z,8.06
2022-12-29T21:19:43.561Z,8.11
2022-12-29T21:23:06.948Z,8.14
2022-12-29T21:26:54.657Z,8.14
2022-12-29T21:30:15.779Z,8.14
2022-12-29T21:37:36.158Z,8.12
2022-12-29T21:40:54.687Z,8.10
2022-12-29T21:44:25.423Z,8.10
2022-12-29T21:47:54.638Z,8.11
2022-12-29T21:51:32.072Z,8.12
2022-12-29T21:55:08.985Z,8.11
2022-12-29T21:58:39.399Z,8.12
2022-12-29T22:02:09.697Z,8.10
2022-12-29T22:05:40.198Z,8.15
2022-12-29T22:09:10.634Z,8.18
2022-12-29T22:12:40.550Z,8.16
2022-12-29T22:15:56.825Z,8.15
2022-12-29T22:19:13.673Z,8.16
2022-12-29T22:22:29.958Z,8.14
2022-12-29T22:25:49.516Z,8.08
2022-12-29T22:29:05.846Z,7.99
2022-12-29T22:32:22.036Z,7.96
2022-12-29T22:35:38.772Z,8.06
2022-12-29T22:38:54.930Z,8.12
2022-12-29T22:42:11.671Z,8.18
2022-12-29T22:45:28.064Z,8.19
2022-12-29T22:48:45.249Z,8.20
2022-12-29T22:52:01.639Z,8.26
2022-12-29T22:55:18.489Z,8.25
2022-12-29T22:58:34.521Z,8.24
2022-12-29T23:01:51.210Z,8.26
2022-12-29T23:05:07.363Z,8.24
2022-12-29T23:08:23.861Z,8.19
2022-12-29T23:11:40.652Z,8.15
2022-12-29T23:14:56.830Z,8.14
2022-12-29T23:18:15.644Z,8.09
2022-12-29T23:21:31.888Z,8.03
2022-12-29T23:24:47.916Z,7.97
2022-12-29T23:28:04.017Z,7.92
2022-12-29T23:31:20.353Z,7.91
2022-12-29T23:34:36.748Z,7.91
2022-12-29T23:37:52.983Z,7.90
2022-12-29T23:41:09.412Z,7.85
2022-12-29T23:44:25.564Z,7.82
2022-12-29T23:47:41.634Z,7.83
2022-12-29T23:50:57.769Z,7.83
2022-12-29T23:54:13.935Z,7.83
2022-12-29T23:57:31.708Z,7.72
